sensor_id;sensor_type;location;lat;lon;timestamp;P1;durP1;ratioP1;P2;durP2;ratioP2
26098;SDS011;13860;52.370;6.764;2022-12-29T00:01:46;2.50;;;1.90;;
26098;SDS011;13860;52.370;6.764;2022-12-29T00:04:50;4.80;;;2.20;;
26098;SDS011;13860;52.370;6.764;2022-12-29T00:07:53;2.90;;;2.08;;
26098;SDS011;13860;52.370;6.764;2022-12-29T00:10:59;2.35;;;2.08;;
26098;SDS011;13860;52.370;6.764;2022-12-29T00:14:03;2.80;;;2.30;;
26098;SDS011;13860;52.370;6.764;2022-12-29T00:17:26;4.75;;;2.15;;
26098;SDS011;13860;52.370;6.764;2022-12-29T00:20:33;4.57;;;2.03;;
26098;SDS011;13860;52.370;6.764;2022-12-29T00:23:50;2.42;;;1.90;;
26098;SDS011;13860;52.370;6.764;2022-12-29T00:27:11;4.43;;;2.08;;
26098;SDS011;13860;52.370;6.764;2022-12-29T00:30:28;4.47;;;2.22;;
26098;SDS011;13860;52.370;6.764;2022-12-29T00:33:46;5.03;;;2.35;;
26098;SDS011;13860;52.370;6.764;2022-12-29T00:37:02;2.40;;;1.67;;
26098;SDS011;13860;52.370;6.764;2022-12-29T00:40:08;2.90;;;2.22;;
26098;SDS011;13860;52.370;6.764;2022-12-29T00:43:27;2.30;;;2.03;;
26098;SDS011;13860;52.370;6.764;2022-12-29T00:46:44;2.47;;;1.85;;
26098;SDS011;13860;52.370;6.764;2022-12-29T00:49:48;3.47;;;2.20;;
26098;SDS011;13860;52.370;6.764;2022-12-29T00:52:52;2.50;;;2.03;;
26098;SDS011;13860;52.370;6.764;2022-12-29T00:55:56;6.18;;;2.15;;
26098;SDS011;13860;52.370;6.764;2022-12-29T00:59:02;4.85;;;2.35;;
26098;SDS011;13860;52.370;6.764;2022-12-29T01:02:08;2.60;;;1.73;;
26098;SDS011;13860;52.370;6.764;2022-12-29T01:05:12;1.58;;;1.40;;
26098;SDS011;13860;52.370;6.764;2022-12-29T01:08:18;2.33;;;1.85;;
26098;SDS011;13860;52.370;6.764;2022-12-29T01:11:22;2.55;;;1.75;;
26098;SDS011;13860;52.370;6.764;2022-12-29T01:14:26;2.45;;;1.88;;
26098;SDS011;13860;52.370;6.764;2022-12-29T01:17:31;3.85;;;1.90;;
26098;SDS011;13860;52.370;6.764;2022-12-29T01:20:35;2.90;;;2.00;;
26098;SDS011;13860;52.370;6.764;2022-12-29T01:23:39;2.38;;;1.67;;
26098;SDS011;13860;52.370;6.764;2022-12-29T01:26:43;2.85;;;1.92;;
26098;SDS011;13860;52.370;6.764;2022-12-29T01:29:49;1.90;;;1.45;;
26098;SDS011;13860;52.370;6.764;2022-12-29T01:32:52;2.20;;;1.77;;
26098;SDS011;13860;52.370;6.764;2022-12-29T01:35:59;2.35;;;1.80;;
26098;SDS011;13860;52.370;6.764;2022-12-29T01:39:03;5.57;;;1.52;;
26098;SDS011;13860;52.370;6.764;2022-12-29T01:42:10;2.13;;;1.73;;
26098;SDS011;13860;52.370;6.764;2022-12-29T01:45:20;1.55;;;1.35;;
26098;SDS011;13860;52.370;6.764;2022-12-29T01:48:24;2.33;;;1.50;;
26098;SDS011;13860;52.370;6.764;2022-12-29T01:51:28;3.42;;;1.40;;
26098;SDS011;13860;52.370;6.764;2022-12-29T01:54:37;1.75;;;1.20;;
26098;SDS011;13860;52.370;6.764;2022-12-29T01:57:44;5.55;;;1.45;;
26098;SDS011;13860;52.370;6.764;2022-12-29T02:00:53;1.65;;;1.15;;
26098;SDS011;13860;52.370;6.764;2022-12-29T02:03:57;2.38;;;1.20;;
26098;SDS011;13860;52.370;6.764;2022-12-29T02:07:02;1.35;;;1.02;;
26098;SDS011;13860;52.370;6.764;2022-12-29T02:10:10;1.15;;;0.95;;
26098;SDS011;13860;52.370;6.764;2022-12-29T02:13:15;1.70;;;0.88;;
26098;SDS011;13860;52.370;6.764;2022-12-29T02:23:30;1.70;;;1.00;;
26098;SDS011;13860;52.370;6.764;2022-12-29T02:27:00;1.00;;;0.80;;
26098;SDS011;13860;52.370;6.764;2022-12-29T02:34:06;1.88;;;0.73;;
26098;SDS011;13860;52.370;6.764;2022-12-29T02:37:22;1.10;;;1.00;;
26098;SDS011;13860;52.370;6.764;2022-12-29T02:40:30;2.70;;;1.25;;
26098;SDS011;13860;52.370;6.764;2022-12-29T02:43:41;2.75;;;1.02;;
26098;SDS011;13860;52.370;6.764;2022-12-29T02:47:00;2.40;;;1.20;;
26098;SDS011;13860;52.370;6.764;2022-12-29T02:50:13;1.10;;;1.00;;
26098;SDS011;13860;52.370;6.764;2022-12-29T02:53:20;5.03;;;1.60;;
26098;SDS011;13860;52.370;6.764;2022-12-29T02:56:39;1.85;;;1.40;;
26098;SDS011;13860;52.370;6.764;2022-12-29T03:02:58;2.17;;;1.00;;
26098;SDS011;13860;52.370;6.764;2022-12-29T03:06:25;1.60;;;1.30;;
26098;SDS011;13860;52.370;6.764;2022-12-29T03:09:36;3.08;;;1.40;;
26098;SDS011;13860;52.370;6.764;2022-12-29T03:12:48;4.40;;;1.00;;
26098;SDS011;13860;52.370;6.764;2022-12-29T03:16:12;1.10;;;0.90;;
26098;SDS011;13860;52.370;6.764;2022-12-29T03:19:23;3.22;;;1.85;;
26098;SDS011;13860;52.370;6.764;2022-12-29T03:22:34;1.40;;;1.20;;
26098;SDS011;13860;52.370;6.764;2022-12-29T03:25:46;3.15;;;1.00;;
26098;SDS011;13860;52.370;6.764;2022-12-29T03:28:55;5.03;;;0.90;;
26098;SDS011;13860;52.370;6.764;2022-12-29T03:32:03;1.83;;;0.77;;
26098;SDS011;13860;52.370;6.764;2022-12-29T03:35:09;0.82;;;0.52;;
26098;SDS011;13860;52.370;6.764;2022-12-29T03:38:18;1.55;;;0.43;;
26098;SDS011;13860;52.370;6.764;2022-12-29T03:41:28;2.85;;;1.00;;
26098;SDS011;13860;52.370;6.764;2022-12-29T03:44:38;4.38;;;0.70;;
26098;SDS011;13860;52.370;6.764;2022-12-29T03:47:45;3.22;;;0.50;;
26098;SDS011;13860;52.370;6.764;2022-12-29T03:50:50;1.48;;;0.47;;
26098;SDS011;13860;52.370;6.764;2022-12-29T03:53:56;3.22;;;0.73;;
26098;SDS011;13860;52.370;6.764;2022-12-29T03:57:00;3.15;;;0.68;;
26098;SDS011;13860;52.370;6.764;2022-12-29T04:00:16;2.60;;;1.02;;
26098;SDS011;13860;52.370;6.764;2022-12-29T04:03:23;3.60;;;1.08;;
26098;SDS011;13860;52.370;6.764;2022-12-29T04:09:39;3.67;;;1.00;;
26098;SDS011;13860;52.370;6.764;2022-12-29T04:12:47;3.72;;;0.93;;
26098;SDS011;13860;52.370;6.764;2022-12-29T04:15:51;2.45;;;1.02;;
26098;SDS011;13860;52.370;6.764;2022-12-29T04:18:55;6.22;;;0.70;;
26098;SDS011;13860;52.370;6.764;2022-12-29T04:21:59;5.13;;;1.00;;
26098;SDS011;13860;52.370;6.764;2022-12-29T04:25:06;2.65;;;1.00;;
26098;SDS011;13860;52.370;6.764;2022-12-29T04:28:11;2.30;;;0.88;;
26098;SDS011;13860;52.370;6.764;2022-12-29T04:31:29;3.47;;;0.85;;
26098;SDS011;13860;52.370;6.764;2022-12-29T04:34:33;3.42;;;0.98;;
26098;SDS011;13860;52.370;6.764;2022-12-29T04:37:37;2.67;;;0.90;;
26098;SDS011;13860;52.370;6.764;2022-12-29T04:40:43;2.88;;;0.93;;
26098;SDS011;13860;52.370;6.764;2022-12-29T04:43:47;2.47;;;1.15;;
26098;SDS011;13860;52.370;6.764;2022-12-29T04:47:12;4.43;;;1.00;;
26098;SDS011;13860;52.370;6.764;2022-12-29T04:50:41;3.25;;;1.00;;
26098;SDS011;13860;52.370;6.764;2022-12-29T04:53:50;2.13;;;0.70;;
26098;SDS011;13860;52.370;6.764;2022-12-29T04:56:56;4.30;;;1.05;;
26098;SDS011;13860;52.370;6.764;2022-12-29T05:00:00;7.18;;;1.15;;
26098;SDS011;13860;52.370;6.764;2022-12-29T05:03:04;6.05;;;1.17;;
26098;SDS011;13860;52.370;6.764;2022-12-29T05:06:10;2.25;;;0.80;;
26098;SDS011;13860;52.370;6.764;2022-12-29T05:09:14;5.70;;;0.98;;
26098;SDS011;13860;52.370;6.764;2022-12-29T05:12:21;5.88;;;0.80;;
26098;SDS011;13860;52.370;6.764;2022-12-29T05:15:32;5.77;;;1.03;;
26098;SDS011;13860;52.370;6.764;2022-12-29T05:18:36;2.55;;;1.08;;
26098;SDS011;13860;52.370;6.764;2022-12-29T05:21:41;3.03;;;0.95;;
26098;SDS011;13860;52.370;6.764;2022-12-29T05:24:45;5.65;;;0.88;;
26098;SDS011;13860;52.370;6.764;2022-12-29T05:27:52;3.90;;;0.77;;
26098;SDS011;13860;52.370;6.764;2022-12-29T05:31:13;6.50;;;0.80;;
26098;SDS011;13860;52.370;6.764;2022-12-29T05:34:17;3.28;;;1.02;;
26098;SDS011;13860;52.370;6.764;2022-12-29T05:40:25;2.85;;;0.95;;
26098;SDS011;13860;52.370;6.764;2022-12-29T05:43:34;1.65;;;0.60;;
26098;SDS011;13860;52.370;6.764;2022-12-29T05:46:48;3.72;;;1.02;;
26098;SDS011;13860;52.370;6.764;2022-12-29T05:50:15;3.53;;;0.90;;
26098;SDS011;13860;52.370;6.764;2022-12-29T05:53:42;2.85;;;0.80;;
26098;SDS011;13860;52.370;6.764;2022-12-29T05:56:46;1.70;;;0.82;;
26098;SDS011;13860;52.370;6.764;2022-12-29T06:02:55;7.20;;;1.23;;
26098;SDS011;13860;52.370;6.764;2022-12-29T06:06:00;9.02;;;1.30;;
26098;SDS011;13860;52.370;6.764;2022-12-29T06:12:07;2.80;;;1.05;;
26098;SDS011;13860;52.370;6.764;2022-12-29T06:15:15;10.35;;;1.10;;
26098;SDS011;13860;52.370;6.764;2022-12-29T06:18:22;6.85;;;1.15;;
26098;SDS011;13860;52.370;6.764;2022-12-29T06:21:25;7.82;;;1.30;;
26098;SDS011;13860;52.370;6.764;2022-12-29T06:24:29;10.75;;;1.17;;
26098;SDS011;13860;52.370;6.764;2022-12-29T06:27:33;10.18;;;1.40;;
26098;SDS011;13860;52.370;6.764;2022-12-29T06:30:39;8.45;;;1.40;;
26098;SDS011;13860;52.370;6.764;2022-12-29T06:33:42;7.65;;;1.33;;
26098;SDS011;13860;52.370;6.764;2022-12-29T06:36:50;8.32;;;1.25;;
26098;SDS011;13860;52.370;6.764;2022-12-29T06:39:54;4.53;;;1.15;;
26098;SDS011;13860;52.370;6.764;2022-12-29T06:43:03;6.13;;;1.25;;
26098;SDS011;13860;52.370;6.764;2022-12-29T06:46:27;8.77;;;1.55;;
26098;SDS011;13860;52.370;6.764;2022-12-29T06:49:31;3.10;;;0.75;;
26098;SDS011;13860;52.370;6.764;2022-12-29T06:52:35;4.20;;;1.30;;
26098;SDS011;13860;52.370;6.764;2022-12-29T06:55:39;8.15;;;1.23;;
26098;SDS011;13860;52.370;6.764;2022-12-29T06:58:44;5.88;;;1.15;;
26098;SDS011;13860;52.370;6.764;2022-12-29T07:01:49;7.13;;;1.33;;
26098;SDS011;13860;52.370;6.764;2022-12-29T07:04:54;3.38;;;1.17;;
26098;SDS011;13860;52.370;6.764;2022-12-29T07:07:58;7.90;;;1.13;;
26098;SDS011;13860;52.370;6.764;2022-12-29T07:11:01;3.67;;;1.17;;
26098;SDS011;13860;52.370;6.764;2022-12-29T07:17:11;5.10;;;1.13;;
26098;SDS011;13860;52.370;6.764;2022-12-29T07:20:14;5.07;;;0.90;;
26098;SDS011;13860;52.370;6.764;2022-12-29T07:23:27;5.40;;;1.15;;
26098;SDS011;13860;52.370;6.764;2022-12-29T07:26:31;8.35;;;1.48;;
26098;SDS011;13860;52.370;6.764;2022-12-29T07:29:37;9.20;;;1.52;;
26098;SDS011;13860;52.370;6.764;2022-12-29T07:35:46;5.90;;;1.20;;
26098;SDS011;13860;52.370;6.764;2022-12-29T07:38:50;7.05;;;1.25;;
26098;SDS011;13860;52.370;6.764;2022-12-29T07:41:54;5.72;;;1.23;;
26098;SDS011;13860;52.370;6.764;2022-12-29T07:45:11;9.93;;;1.48;;
26098;SDS011;13860;52.370;6.764;2022-12-29T07:48:43;6.47;;;1.60;;
26098;SDS011;13860;52.370;6.764;2022-12-29T07:51:47;9.25;;;1.83;;
26098;SDS011;13860;52.370;6.764;2022-12-29T07:54:51;6.50;;;1.25;;
26098;SDS011;13860;52.370;6.764;2022-12-29T07:57:54;9.00;;;1.52;;
26098;SDS011;13860;52.370;6.764;2022-12-29T08:00:59;10.35;;;1.05;;
26098;SDS011;13860;52.370;6.764;2022-12-29T08:04:04;5.70;;;1.15;;
26098;SDS011;13860;52.370;6.764;2022-12-29T08:07:08;7.55;;;1.85;;
26098;SDS011;13860;52.370;6.764;2022-12-29T08:10:13;6.68;;;1.95;;
26098;SDS011;13860;52.370;6.764;2022-12-29T08:13:17;5.60;;;1.67;;
26098;SDS011;13860;52.370;6.764;2022-12-29T08:16:21;8.43;;;0.80;;
26098;SDS011;13860;52.370;6.764;2022-12-29T08:22:31;8.63;;;1.23;;
26098;SDS011;13860;52.370;6.764;2022-12-29T08:25:34;9.95;;;1.20;;
26098;SDS011;13860;52.370;6.764;2022-12-29T08:28:38;9.80;;;1.58;;
26098;SDS011;13860;52.370;6.764;2022-12-29T08:31:43;6.95;;;1.55;;
26098;SDS011;13860;52.370;6.764;2022-12-29T08:34:49;5.47;;;1.15;;
26098;SDS011;13860;52.370;6.764;2022-12-29T08:37:52;5.80;;;0.90;;
26098;SDS011;13860;52.370;6.764;2022-12-29T08:40:56;10.00;;;2.28;;
26098;SDS011;13860;52.370;6.764;2022-12-29T08:44:02;3.67;;;1.23;;
26098;SDS011;13860;52.370;6.764;2022-12-29T08:47:05;7.68;;;1.42;;
26098;SDS011;13860;52.370;6.764;2022-12-29T08:50:11;5.55;;;1.33;;
26098;SDS011;13860;52.370;6.764;2022-12-29T08:53:15;6.57;;;0.90;;
26098;SDS011;13860;52.370;6.764;2022-12-29T08:56:19;9.98;;;1.38;;
26098;SDS011;13860;52.370;6.764;2022-12-29T08:59:27;12.48;;;1.70;;
26098;SDS011;13860;52.370;6.764;2022-12-29T09:02:31;4.43;;;1.30;;
26098;SDS011;13860;52.370;6.764;2022-12-29T09:05:37;5.13;;;1.05;;
26098;SDS011;13860;52.370;6.764;2022-12-29T09:08:41;10.57;;;1.50;;
26098;SDS011;13860;52.370;6.764;2022-12-29T09:11:45;7.05;;;1.58;;
26098;SDS011;13860;52.370;6.764;2022-12-29T09:17:52;12.82;;;1.75;;
26098;SDS011;13860;52.370;6.764;2022-12-29T09:20:59;9.65;;;1.60;;
26098;SDS011;13860;52.370;6.764;2022-12-29T09:24:04;12.90;;;1.52;;
26098;SDS011;13860;52.370;6.764;2022-12-29T09:27:08;21.88;;;2.00;;
26098;SDS011;13860;52.370;6.764;2022-12-29T09:30:14;6.25;;;1.35;;
26098;SDS011;13860;52.370;6.764;2022-12-29T09:33:18;14.52;;;1.70;;
26098;SDS011;13860;52.370;6.764;2022-12-29T09:36:24;15.27;;;2.22;;
26098;SDS011;13860;52.370;6.764;2022-12-29T09:39:27;15.48;;;1.80;;
26098;SDS011;13860;52.370;6.764;2022-12-29T09:42:32;5.75;;;1.33;;
26098;SDS011;13860;52.370;6.764;2022-12-29T09:45:42;12.40;;;1.50;;
26098;SDS011;13860;52.370;6.764;2022-12-29T09:48:50;9.43;;;1.80;;
26098;SDS011;13860;52.370;6.764;2022-12-29T09:52:02;10.25;;;2.40;;
26098;SDS011;13860;52.370;6.764;2022-12-29T09:55:10;16.25;;;1.75;;
26098;SDS011;13860;52.370;6.764;2022-12-29T09:58:20;11.60;;;1.65;;
26098;SDS011;13860;52.370;6.764;2022-12-29T10:01:31;8.82;;;1.50;;
26098;SDS011;13860;52.370;6.764;2022-12-29T10:04:39;12.07;;;1.48;;
26098;SDS011;13860;52.370;6.764;2022-12-29T10:07:48;10.10;;;1.67;;
26098;SDS011;13860;52.370;6.764;2022-12-29T10:10:58;8.32;;;1.45;;
26098;SDS011;13860;52.370;6.764;2022-12-29T10:14:17;7.97;;;1.60;;
26098;SDS011;13860;52.370;6.764;2022-12-29T10:17:34;13.05;;;2.63;;
26098;SDS011;13860;52.370;6.764;2022-12-29T10:20:47;14.00;;;2.60;;
26098;SDS011;13860;52.370;6.764;2022-12-29T10:23:58;12.23;;;1.50;;
26098;SDS011;13860;52.370;6.764;2022-12-29T10:27:05;12.52;;;1.92;;
26098;SDS011;13860;52.370;6.764;2022-12-29T10:30:13;10.57;;;1.38;;
26098;SDS011;13860;52.370;6.764;2022-12-29T10:33:18;12.20;;;2.08;;
26098;SDS011;13860;52.370;6.764;2022-12-29T10:36:28;10.52;;;1.63;;
26098;SDS011;13860;52.370;6.764;2022-12-29T10:39:41;10.70;;;1.67;;
26098;SDS011;13860;52.370;6.764;2022-12-29T10:42:50;11.73;;;1.85;;
26098;SDS011;13860;52.370;6.764;2022-12-29T10:45:57;14.55;;;1.98;;
26098;SDS011;13860;52.370;6.764;2022-12-29T10:49:06;11.98;;;2.30;;
26098;SDS011;13860;52.370;6.764;2022-12-29T10:52:22;14.57;;;1.83;;
26098;SDS011;13860;52.370;6.764;2022-12-29T10:55:30;10.65;;;2.33;;
26098;SDS011;13860;52.370;6.764;2022-12-29T10:58:38;6.63;;;1.25;;
26098;SDS011;13860;52.370;6.764;2022-12-29T11:01:52;6.18;;;1.40;;
26098;SDS011;13860;52.370;6.764;2022-12-29T11:05:02;5.35;;;1.02;;
26098;SDS011;13860;52.370;6.764;2022-12-29T11:08:11;6.68;;;1.25;;
26098;SDS011;13860;52.370;6.764;2022-12-29T11:11:24;13.73;;;1.77;;
26098;SDS011;13860;52.370;6.764;2022-12-29T11:14:29;7.63;;;1.23;;
26098;SDS011;13860;52.370;6.764;2022-12-29T11:17:42;11.40;;;1.58;;
26098;SDS011;13860;52.370;6.764;2022-12-29T11:20:47;5.13;;;1.30;;
26098;SDS011;13860;52.370;6.764;2022-12-29T11:23:54;5.28;;;1.20;;
26098;SDS011;13860;52.370;6.764;2022-12-29T11:27:10;3.63;;;1.15;;
26098;SDS011;13860;52.370;6.764;2022-12-29T11:30:22;6.00;;;1.85;;
26098;SDS011;13860;52.370;6.764;2022-12-29T11:33:27;7.22;;;2.08;;
26098;SDS011;13860;52.370;6.764;2022-12-29T11:39:37;5.05;;;1.27;;
26098;SDS011;13860;52.370;6.764;2022-12-29T11:42:48;6.78;;;1.35;;
26098;SDS011;13860;52.370;6.764;2022-12-29T11:45:55;7.72;;;1.23;;
26098;SDS011;13860;52.370;6.764;2022-12-29T11:48:59;10.27;;;1.40;;
26098;SDS011;13860;52.370;6.764;2022-12-29T11:52:05;6.47;;;1.40;;
26098;SDS011;13860;52.370;6.764;2022-12-29T11:55:16;8.07;;;1.60;;
26098;SDS011;13860;52.370;6.764;2022-12-29T11:58:29;5.05;;;1.15;;
26098;SDS011;13860;52.370;6.764;2022-12-29T12:01:36;10.85;;;1.77;;
26098;SDS011;13860;52.370;6.764;2022-12-29T12:04:42;5.85;;;1.42;;
26098;SDS011;13860;52.370;6.764;2022-12-29T12:07:46;4.18;;;1.10;;
26098;SDS011;13860;52.370;6.764;2022-12-29T12:10:54;9.80;;;1.50;;
26098;SDS011;13860;52.370;6.764;2022-12-29T12:14:04;7.32;;;1.58;;
26098;SDS011;13860;52.370;6.764;2022-12-29T12:17:33;10.95;;;1.88;;
26098;SDS011;13860;52.370;6.764;2022-12-29T12:20:44;8.85;;;1.60;;
26098;SDS011;13860;52.370;6.764;2022-12-29T12:24:05;9.90;;;2.45;;
26098;SDS011;13860;52.370;6.764;2022-12-29T12:27:20;10.95;;;1.90;;
26098;SDS011;13860;52.370;6.764;2022-12-29T12:30:30;9.75;;;2.28;;
26098;SDS011;13860;52.370;6.764;2022-12-29T12:33:41;14.07;;;2.22;;
26098;SDS011;13860;52.370;6.764;2022-12-29T12:37:03;7.50;;;2.03;;
26098;SDS011;13860;52.370;6.764;2022-12-29T12:48:14;15.73;;;2.10;;
26098;SDS011;13860;52.370;6.764;2022-12-29T12:51:33;11.50;;;1.90;;
26098;SDS011;13860;52.370;6.764;2022-12-29T12:54:56;13.30;;;2.60;;
26098;SDS011;13860;52.370;6.764;2022-12-29T12:58:19;11.25;;;2.10;;
26098;SDS011;13860;52.370;6.764;2022-12-29T13:01:34;18.55;;;3.03;;
26098;SDS011;13860;52.370;6.764;2022-12-29T13:04:52;5.70;;;1.73;;
26098;SDS011;13860;52.370;6.764;2022-12-29T13:08:07;14.07;;;2.45;;
26098;SDS011;13860;52.370;6.764;2022-12-29T13:11:33;12.68;;;1.73;;
26098;SDS011;13860;52.370;6.764;2022-12-29T13:14:51;8.45;;;2.30;;
26098;SDS011;13860;52.370;6.764;2022-12-29T13:18:05;7.90;;;1.52;;
26098;SDS011;13860;52.370;6.764;2022-12-29T13:21:27;6.80;;;2.00;;
26098;SDS011;13860;52.370;6.764;2022-12-29T13:24:43;6.57;;;1.67;;
26098;SDS011;13860;52.370;6.764;2022-12-29T13:27:54;9.50;;;2.03;;
26098;SDS011;13860;52.370;6.764;2022-12-29T13:31:04;7.05;;;2.10;;
26098;SDS011;13860;52.370;6.764;2022-12-29T13:34:21;8.25;;;2.33;;
26098;SDS011;13860;52.370;6.764;2022-12-29T13:37:39;9.20;;;2.63;;
26098;SDS011;13860;52.370;6.764;2022-12-29T13:40:50;9.93;;;1.75;;
26098;SDS011;13860;52.370;6.764;2022-12-29T13:43:57;11.65;;;2.33;;
26098;SDS011;13860;52.370;6.764;2022-12-29T13:47:06;14.93;;;2.25;;
26098;SDS011;13860;52.370;6.764;2022-12-29T13:50:18;4.47;;;2.22;;
26098;SDS011;13860;52.370;6.764;2022-12-29T13:53:27;10.32;;;2.38;;
26098;SDS011;13860;52.370;6.764;2022-12-29T13:56:38;11.55;;;3.15;;
26098;SDS011;13860;52.370;6.764;2022-12-29T13:59:48;7.90;;;2.63;;
26098;SDS011;13860;52.370;6.764;2022-12-29T14:03:04;14.85;;;2.97;;
26098;SDS011;13860;52.370;6.764;2022-12-29T14:06:27;13.75;;;2.60;;
26098;SDS011;13860;52.370;6.764;2022-12-29T14:13:00;13.48;;;2.63;;
26098;SDS011;13860;52.370;6.764;2022-12-29T14:16:24;9.00;;;2.53;;
26098;SDS011;13860;52.370;6.764;2022-12-29T14:19:31;15.70;;;3.10;;
26098;SDS011;13860;52.370;6.764;2022-12-29T14:22:36;19.02;;;3.55;;
26098;SDS011;13860;52.370;6.764;2022-12-29T14:26:09;13.98;;;2.80;;
26098;SDS011;13860;52.370;6.764;2022-12-29T14:29:15;16.92;;;4.75;;
26098;SDS011;13860;52.370;6.764;2022-12-29T14:32:40;20.67;;;3.47;;
26098;SDS011;13860;52.370;6.764;2022-12-29T14:39:37;20.77;;;3.63;;
26098;SDS011;13860;52.370;6.764;2022-12-29T14:42:50;8.25;;;2.80;;
26098;SDS011;13860;52.370;6.764;2022-12-29T14:45:57;14.07;;;2.67;;
26098;SDS011;13860;52.370;6.764;2022-12-29T14:49:04;19.50;;;3.05;;
26098;SDS011;13860;52.370;6.764;2022-12-29T14:52:13;17.58;;;3.60;;
26098;SDS011;13860;52.370;6.764;2022-12-29T14:55:31;17.17;;;3.10;;
26098;SDS011;13860;52.370;6.764;2022-12-29T14:58:46;15.95;;;2.60;;
26098;SDS011;13860;52.370;6.764;2022-12-29T15:01:54;15.37;;;3.03;;
26098;SDS011;13860;52.370;6.764;2022-12-29T15:04:59;23.15;;;3.22;;
26098;SDS011;13860;52.370;6.764;2022-12-29T15:08:05;14.27;;;2.88;;
26098;SDS011;13860;52.370;6.764;2022-12-29T15:11:11;8.48;;;2.65;;
26098;SDS011;13860;52.370;6.764;2022-12-29T15:17:52;14.80;;;2.78;;
26098;SDS011;13860;52.370;6.764;2022-12-29T15:20:56;16.38;;;3.50;;
26098;SDS011;13860;52.370;6.764;2022-12-29T15:24:02;19.17;;;3.50;;
26098;SDS011;13860;52.370;6.764;2022-12-29T15:27:10;12.13;;;3.00;;
26098;SDS011;13860;52.370;6.764;2022-12-29T15:30:19;19.10;;;3.10;;
26098;SDS011;13860;52.370;6.764;2022-12-29T15:33:24;12.32;;;2.90;;
26098;SDS011;13860;52.370;6.764;2022-12-29T15:36:34;16.27;;;2.80;;
26098;SDS011;13860;52.370;6.764;2022-12-29T15:39:41;8.90;;;1.65;;
26098;SDS011;13860;52.370;6.764;2022-12-29T15:42:48;7.20;;;2.03;;
26098;SDS011;13860;52.370;6.764;2022-12-29T15:46:01;9.13;;;1.88;;
26098;SDS011;13860;52.370;6.764;2022-12-29T15:49:06;9.20;;;1.60;;
26098;SDS011;13860;52.370;6.764;2022-12-29T15:52:13;8.88;;;1.65;;
26098;SDS011;13860;52.370;6.764;2022-12-29T15:55:21;6.40;;;1.92;;
26098;SDS011;13860;52.370;6.764;2022-12-29T15:58:31;6.25;;;1.65;;
26098;SDS011;13860;52.370;6.764;2022-12-29T16:01:47;32.30;;;12.52;;
26098;SDS011;13860;52.370;6.764;2022-12-29T16:04:51;9.27;;;2.03;;
26098;SDS011;13860;52.370;6.764;2022-12-29T16:08:20;3.20;;;1.33;;
26098;SDS011;13860;52.370;6.764;2022-12-29T16:11:31;3.47;;;1.23;;
26098;SDS011;13860;52.370;6.764;2022-12-29T16:14:39;1.75;;;1.30;;
26098;SDS011;13860;52.370;6.764;2022-12-29T16:17:48;4.95;;;1.95;;
26098;SDS011;13860;52.370;6.764;2022-12-29T16:20:54;5.43;;;1.90;;
26098;SDS011;13860;52.370;6.764;2022-12-29T16:24:00;10.10;;;2.00;;
26098;SDS011;13860;52.370;6.764;2022-12-29T16:27:06;6.70;;;1.42;;
26098;SDS011;13860;52.370;6.764;2022-12-29T16:30:17;8.30;;;2.05;;
26098;SDS011;13860;52.370;6.764;2022-12-29T16:33:40;5.28;;;1.67;;
26098;SDS011;13860;52.370;6.764;2022-12-29T16:36:52;10.27;;;1.73;;
26098;SDS011;13860;52.370;6.764;2022-12-29T16:40:13;8.38;;;2.00;;
26098;SDS011;13860;52.370;6.764;2022-12-29T16:43:29;11.00;;;2.20;;
26098;SDS011;13860;52.370;6.764;2022-12-29T16:46:35;9.27;;;2.30;;
26098;SDS011;13860;52.370;6.764;2022-12-29T16:49:46;7.68;;;2.00;;
26098;SDS011;13860;52.370;6.764;2022-12-29T16:52:53;8.60;;;2.00;;
26098;SDS011;13860;52.370;6.764;2022-12-29T16:55:59;9.55;;;1.80;;
26098;SDS011;13860;52.370;6.764;2022-12-29T16:59:16;6.50;;;2.33;;
26098;SDS011;13860;52.370;6.764;2022-12-29T17:02:35;10.23;;;3.63;;
26098;SDS011;13860;52.370;6.764;2022-12-29T17:05:47;5.05;;;2.15;;
26098;SDS011;13860;52.370;6.764;2022-12-29T17:08:58;13.25;;;2.15;;
26098;SDS011;13860;52.370;6.764;2022-12-29T17:12:02;13.60;;;2.55;;
26098;SDS011;13860;52.370;6.764;2022-12-29T17:15:13;5.18;;;1.73;;
26098;SDS011;13860;52.370;6.764;2022-12-29T17:18:24;8.90;;;2.38;;
26098;SDS011;13860;52.370;6.764;2022-12-29T17:21:30;12.68;;;2.25;;
26098;SDS011;13860;52.370;6.764;2022-12-29T17:24:34;6.72;;;1.58;;
26098;SDS011;13860;52.370;6.764;2022-12-29T17:27:40;6.47;;;2.03;;
26098;SDS011;13860;52.370;6.764;2022-12-29T17:30:46;9.85;;;2.72;;
26098;SDS011;13860;52.370;6.764;2022-12-29T17:33:50;6.47;;;1.88;;
26098;SDS011;13860;52.370;6.764;2022-12-29T17:36:58;9.38;;;2.33;;
26098;SDS011;13860;52.370;6.764;2022-12-29T17:40:03;8.52;;;1.98;;
26098;SDS011;13860;52.370;6.764;2022-12-29T17:43:08;10.32;;;2.50;;
26098;SDS011;13860;52.370;6.764;2022-12-29T17:46:15;9.82;;;2.10;;
26098;SDS011;13860;52.370;6.764;2022-12-29T17:49:19;8.60;;;2.17;;
26098;SDS011;13860;52.370;6.764;2022-12-29T17:52:25;13.40;;;2.75;;
26098;SDS011;13860;52.370;6.764;2022-12-29T17:55:29;4.43;;;1.70;;
26098;SDS011;13860;52.370;6.764;2022-12-29T17:58:39;6.65;;;1.77;;
26098;SDS011;13860;52.370;6.764;2022-12-29T18:01:43;10.77;;;1.70;;
26098;SDS011;13860;52.370;6.764;2022-12-29T18:04:49;8.82;;;1.73;;
26098;SDS011;13860;52.370;6.764;2022-12-29T18:10:59;10.60;;;1.98;;
26098;SDS011;13860;52.370;6.764;2022-12-29T18:14:04;16.02;;;2.30;;
26098;SDS011;13860;52.370;6.764;2022-12-29T18:20:14;11.63;;;1.55;;
26098;SDS011;13860;52.370;6.764;2022-12-29T18:23:21;4.53;;;1.50;;
26098;SDS011;13860;52.370;6.764;2022-12-29T18:26:27;5.13;;;1.60;;
26098;SDS011;13860;52.370;6.764;2022-12-29T18:29:32;12.45;;;2.13;;
26098;SDS011;13860;52.370;6.764;2022-12-29T18:32:36;8.15;;;2.58;;
26098;SDS011;13860;52.370;6.764;2022-12-29T18:35:41;9.80;;;1.95;;
26098;SDS011;13860;52.370;6.764;2022-12-29T18:38:50;9.00;;;2.00;;
26098;SDS011;13860;52.370;6.764;2022-12-29T18:43:21;12.65;;;2.42;;
26098;SDS011;13860;52.370;6.764;2022-12-29T18:46:25;10.55;;;1.95;;
26098;SDS011;13860;52.370;6.764;2022-12-29T18:49:30;18.48;;;2.83;;
26098;SDS011;13860;52.370;6.764;2022-12-29T18:52:33;11.68;;;1.85;;
26098;SDS011;13860;52.370;6.764;2022-12-29T18:55:37;8.20;;;1.85;;
26098;SDS011;13860;52.370;6.764;2022-12-29T18:58:43;6.82;;;1.70;;
26098;SDS011;13860;52.370;6.764;2022-12-29T19:01:46;14.45;;;2.33;;
26098;SDS011;13860;52.370;6.764;2022-12-29T19:04:51;8.98;;;2.05;;
26098;SDS011;13860;52.370;6.764;2022-12-29T19:08:07;4.13;;;1.45;;
26098;SDS011;13860;52.370;6.764;2022-12-29T19:11:12;6.07;;;1.50;;
26098;SDS011;13860;52.370;6.764;2022-12-29T19:17:21;9.00;;;2.15;;
26098;SDS011;13860;52.370;6.764;2022-12-29T19:21:15;11.30;;;2.00;;
26098;SDS011;13860;52.370;6.764;2022-12-29T19:24:19;14.05;;;2.05;;
26098;SDS011;13860;52.370;6.764;2022-12-29T19:27:23;15.90;;;2.47;;
26098;SDS011;13860;52.370;6.764;2022-12-29T19:30:27;19.52;;;2.80;;
26098;SDS011;13860;52.370;6.764;2022-12-29T19:33:33;10.02;;;2.33;;
26098;SDS011;13860;52.370;6.764;2022-12-29T19:36:38;13.40;;;2.33;;
26098;SDS011;13860;52.370;6.764;2022-12-29T19:39:43;9.77;;;1.63;;
26098;SDS011;13860;52.370;6.764;2022-12-29T19:42:47;8.00;;;1.70;;
26098;SDS011;13860;52.370;6.764;2022-12-29T19:45:52;13.15;;;2.88;;
26098;SDS011;13860;52.370;6.764;2022-12-29T19:48:55;13.68;;;2.20;;
26098;SDS011;13860;52.370;6.764;2022-12-29T19:52:02;9.13;;;1.75;;
26098;SDS011;13860;52.370;6.764;2022-12-29T19:55:06;12.38;;;2.45;;
26098;SDS011;13860;52.370;6.764;2022-12-29T19:58:11;13.00;;;2.55;;
26098;SDS011;13860;52.370;6.764;2022-12-29T20:01:16;7.28;;;1.95;;
26098;SDS011;13860;52.370;6.764;2022-12-29T20:04:21;12.85;;;3.05;;